首页
METAR-TAF:

METAR-TAF

机场 :

法赫德国王国际机场

达曼, 沙特阿拉伯

纬度: 26-28N, 经度: 049-47E, 海拔: 22米

当前天气观测

该预报发布于1小时和5分钟前的08:00 UTC
风速4节,风向西转西北
温度 35°C
湿度 30%
气压 1015 hPa
能見度: 8000

METAR: OEDF 170800Z 30004KT 8000 NSC 35/15 Q1015 NOSIG

时间: 12:05 (09:05 UTC)

预报

该预报发布于6小时和35分钟前的02:30 UTC
预报有效从17日的 06点(UTC)到 18日的 12点(UTC)
风速12节,风向东转东南
能見度: 8000
少量云层高于4000英尺
散云层高于8000英尺
短暂存在
从 17日的 18点(UTC)到 17日的 20点(UTC)
风速3节,风向多变
能見度: 4000

TAF: OEDF 170230Z 1706/1812 12012KT 8000 FEW040 SCT080 TEMPO 1718/1720 VRB03KT 4000 HZ NSC

超过4000个机场的气象观测和天气预报(METAR&TAF报告)。

可查询的气象台以黄色和红色小点在地图上表示。

将鼠标移到小点上方,可查看气象台名称。

然后点击查看天气观测和预报。

如需切换地图:点击带黑十字的绿色按钮放大地图;点击带横线的绿色按钮缩小地图;或者点击绿色箭头查看邻近地区的地图。


METAR-TAF: